RYR4573 LIRA-LFBT
Flight info
| Callsign | RYR4573 |
|---|---|
| Flight time | 1h 39m |
| Altitude | 36000 |
| Route | OST7ZXGILIO6V/15 GILIO DCT ELB DCT IXITO DCT GEKBA/N0441F370 DCT VAMTU DCT KOLON DCT GANGU DCT PADKO/N0441F360 DCT FJR DCT GAI/N0441F370 DCT AGN |
| Aircraft | B738/M-SDE2E3FGHIRWXY/LB1 |
Departure
| Time | 2026-05-06 16:14 |
|---|---|
| Airport | Ciampino–G. B. Pastine International Airport (LIRA) |
Arrival
| Time | 2026-05-06 17:53 |
|---|---|
| Airport | Tarbes-Lourdes-Pyrénées Airport (LFBT) |
| Time | Latitude | Longitude | Altitude | Speed | Heading |
|---|---|---|---|---|---|
| 2026-05-06 15:54 | 41.80067 | 12.59025 | 405 ft | 0 kts | 122° |
| 2026-05-06 15:59 | 41.80067 | 12.59024 | 405 ft | 0 kts | 122° |
| 2026-05-06 16:05 | 41.80081 | 12.58998 | 403 ft | 4 kts | 140° |
| 2026-05-06 16:05 | 41.80097 | 12.58980 | 405 ft | 4 kts | 125° |
| 2026-05-06 16:05 | 41.80103 | 12.58951 | 402 ft | 4 kts | 67° |
| 2026-05-06 16:06 | 41.80096 | 12.58934 | 402 ft | 0 kts | 53° |
| 2026-05-06 16:08 | 41.80098 | 12.58937 | 405 ft | 2 kts | 53° |
| 2026-05-06 16:09 | 41.80119 | 12.58976 | 405 ft | 8 kts | 53° |
| 2026-05-06 16:09 | 41.80166 | 12.59057 | 405 ft | 14 kts | 52° |
| 2026-05-06 16:09 | 41.80254 | 12.59061 | 406 ft | 15 kts | 333° |
| 2026-05-06 16:09 | 41.80347 | 12.58998 | 403 ft | 17 kts | 333° |
| 2026-05-06 16:10 | 41.80460 | 12.58920 | 406 ft | 20 kts | 333° |
| 2026-05-06 16:10 | 41.80580 | 12.58837 | 406 ft | 19 kts | 333° |
| 2026-05-06 16:10 | 41.80696 | 12.58757 | 406 ft | 18 kts | 334° |
| 2026-05-06 16:10 | 41.80737 | 12.58787 | 408 ft | 0 kts | 59° |
| 2026-05-06 16:12 | 41.80737 | 12.58789 | 408 ft | 1 kts | 59° |
| 2026-05-06 16:12 | 41.80746 | 12.58810 | 410 ft | 4 kts | 61° |
| 2026-05-06 16:12 | 41.80758 | 12.58839 | 414 ft | 3 kts | 62° |
| 2026-05-06 16:12 | 41.80769 | 12.58867 | 414 ft | 3 kts | 63° |
| 2026-05-06 16:13 | 41.80770 | 12.58908 | 418 ft | 5 kts | 116° |
| 2026-05-06 16:13 | 41.80738 | 12.58933 | 417 ft | 5 kts | 152° |
| 2026-05-06 16:13 | 41.80680 | 12.58974 | 413 ft | 24 kts | 153° |
| 2026-05-06 16:13 | 41.80292 | 12.59238 | 413 ft | 99 kts | 153° |
| 2026-05-06 16:14 | 41.79492 | 12.59786 | 461 ft | 153 kts | 157° |
| 2026-05-06 16:14 | 41.78529 | 12.60452 | 1188 ft | 155 kts | 154° |
| 2026-05-06 16:14 | 41.77517 | 12.60839 | 2029 ft | 156 kts | 176° |
| 2026-05-06 16:14 | 41.76386 | 12.60593 | 2551 ft | 182 kts | 198° |
| 2026-05-06 16:15 | 41.75215 | 12.59751 | 3000 ft | 200 kts | 214° |
| 2026-05-06 16:15 | 41.74205 | 12.58390 | 3568 ft | 211 kts | 232° |
| 2026-05-06 16:15 | 41.73580 | 12.56592 | 4276 ft | 217 kts | 253° |
| 2026-05-06 16:15 | 41.73534 | 12.54562 | 5132 ft | 222 kts | 276° |
| 2026-05-06 16:16 | 41.73948 | 12.52547 | 5923 ft | 228 kts | 284° |
| 2026-05-06 16:16 | 41.74467 | 12.50508 | 6556 ft | 240 kts | 285° |
| 2026-05-06 16:16 | 41.75023 | 12.48265 | 6820 ft | 267 kts | 284° |
| 2026-05-06 16:16 | 41.75575 | 12.45872 | 7490 ft | 276 kts | 284° |
| 2026-05-06 16:17 | 41.76121 | 12.43401 | 8326 ft | 279 kts | 283° |
| 2026-05-06 16:17 | 41.76663 | 12.40901 | 9212 ft | 280 kts | 283° |
| 2026-05-06 16:17 | 41.77211 | 12.38377 | 10013 ft | 284 kts | 283° |
| 2026-05-06 16:17 | 41.77774 | 12.35784 | 10511 ft | 300 kts | 283° |
| 2026-05-06 16:18 | 41.78380 | 12.32978 | 10692 ft | 326 kts | 284° |
| 2026-05-06 16:18 | 41.79029 | 12.29980 | 11075 ft | 341 kts | 284° |
| 2026-05-06 16:18 | 41.79694 | 12.26911 | 11806 ft | 344 kts | 284° |
| 2026-05-06 16:18 | 41.80361 | 12.23822 | 12612 ft | 346 kts | 283° |
| 2026-05-06 16:19 | 41.80944 | 12.20664 | 13321 ft | 351 kts | 280° |
| 2026-05-06 16:19 | 41.81432 | 12.17446 | 14015 ft | 355 kts | 278° |
| 2026-05-06 16:19 | 41.81897 | 12.14192 | 14695 ft | 357 kts | 278° |
| 2026-05-06 16:19 | 41.82366 | 12.10910 | 15378 ft | 359 kts | 278° |
| 2026-05-06 16:20 | 41.82844 | 12.07605 | 16021 ft | 363 kts | 278° |
| 2026-05-06 16:20 | 41.83327 | 12.04319 | 16666 ft | 366 kts | 278° |
| 2026-05-06 16:20 | 41.83826 | 12.00957 | 17320 ft | 369 kts | 278° |
| 2026-05-06 16:20 | 41.84332 | 11.97563 | 17962 ft | 373 kts | 278° |
| 2026-05-06 16:21 | 41.84843 | 11.94139 | 18550 ft | 376 kts | 278° |
| 2026-05-06 16:21 | 41.85357 | 11.90699 | 19120 ft | 378 kts | 278° |
| 2026-05-06 16:21 | 41.85874 | 11.87233 | 19682 ft | 380 kts | 278° |
| 2026-05-06 16:21 | 41.86393 | 11.83741 | 20256 ft | 382 kts | 278° |
| 2026-05-06 16:22 | 41.86914 | 11.80232 | 20806 ft | 385 kts | 278° |
| 2026-05-06 16:22 | 41.87436 | 11.76706 | 21355 ft | 387 kts | 277° |
| 2026-05-06 16:22 | 41.87961 | 11.73154 | 21890 ft | 389 kts | 277° |
| 2026-05-06 16:22 | 41.88489 | 11.69580 | 22427 ft | 391 kts | 277° |
| 2026-05-06 16:23 | 41.89010 | 11.66037 | 22950 ft | 393 kts | 277° |
| 2026-05-06 16:23 | 41.89543 | 11.62433 | 23478 ft | 396 kts | 278° |
| 2026-05-06 16:23 | 41.90476 | 11.58925 | 23853 ft | 407 kts | 295° |
| 2026-05-06 16:23 | 41.92232 | 11.55881 | 24334 ft | 416 kts | 308° |
| 2026-05-06 16:24 | 41.94261 | 11.53091 | 24672 ft | 421 kts | 309° |
| 2026-05-06 16:24 | 41.96320 | 11.50252 | 24898 ft | 427 kts | 309° |
| 2026-05-06 16:24 | 41.98382 | 11.47382 | 25262 ft | 429 kts | 308° |
| 2026-05-06 16:24 | 42.00445 | 11.44486 | 25734 ft | 428 kts | 308° |
| 2026-05-06 16:25 | 42.02474 | 11.41620 | 26144 ft | 429 kts | 308° |
| 2026-05-06 16:25 | 42.04530 | 11.38703 | 26514 ft | 430 kts | 307° |
| 2026-05-06 16:25 | 42.06595 | 11.35765 | 26873 ft | 432 kts | 307° |
| 2026-05-06 16:25 | 42.08661 | 11.32821 | 27230 ft | 434 kts | 307° |
| 2026-05-06 16:26 | 42.10735 | 11.29863 | 27576 ft | 435 kts | 307° |
| 2026-05-06 16:26 | 42.12818 | 11.26891 | 27917 ft | 437 kts | 307° |
| 2026-05-06 16:26 | 42.14904 | 11.23911 | 28249 ft | 438 kts | 307° |
| 2026-05-06 16:26 | 42.17003 | 11.20910 | 28561 ft | 440 kts | 307° |
| 2026-05-06 16:27 | 42.19079 | 11.17940 | 28861 ft | 442 kts | 307° |
| 2026-05-06 16:27 | 42.21188 | 11.14918 | 29190 ft | 443 kts | 307° |
| 2026-05-06 16:27 | 42.23297 | 11.11896 | 29618 ft | 442 kts | 307° |
| 2026-05-06 16:27 | 42.25394 | 11.08888 | 30097 ft | 439 kts | 306° |
| 2026-05-06 16:28 | 42.27482 | 11.05890 | 30473 ft | 437 kts | 306° |
| 2026-05-06 16:28 | 42.29563 | 11.02895 | 30787 ft | 437 kts | 306° |
| 2026-05-06 16:28 | 42.31647 | 10.99892 | 31068 ft | 438 kts | 306° |
| 2026-05-06 16:28 | 42.33728 | 10.96893 | 31379 ft | 437 kts | 306° |
| 2026-05-06 16:29 | 42.35755 | 10.93847 | 31718 ft | 431 kts | 300° |
| 2026-05-06 16:29 | 42.37162 | 10.90380 | 32009 ft | 414 kts | 282° |
| 2026-05-06 16:29 | 42.37865 | 10.86721 | 32412 ft | 405 kts | 276° |
| 2026-05-06 16:29 | 42.38483 | 10.83005 | 32779 ft | 404 kts | 276° |
| 2026-05-06 16:30 | 42.39121 | 10.79303 | 33075 ft | 404 kts | 277° |
| 2026-05-06 16:30 | 42.39551 | 10.76853 | 33278 ft | 404 kts | 277° |
| 2026-05-06 16:30 | 42.40427 | 10.71922 | 33745 ft | 402 kts | 277° |
| 2026-05-06 16:30 | 42.41085 | 10.68246 | 34046 ft | 401 kts | 277° |
| 2026-05-06 16:31 | 42.41741 | 10.64581 | 34288 ft | 401 kts | 277° |
| 2026-05-06 16:31 | 42.42397 | 10.60910 | 34499 ft | 402 kts | 277° |
| 2026-05-06 16:31 | 42.43052 | 10.57235 | 34733 ft | 401 kts | 277° |
| 2026-05-06 16:31 | 42.43697 | 10.53612 | 34970 ft | 401 kts | 277° |
| 2026-05-06 16:32 | 42.44349 | 10.49943 | 35207 ft | 401 kts | 278° |
| 2026-05-06 16:32 | 42.44998 | 10.46279 | 35438 ft | 401 kts | 278° |
| 2026-05-06 16:32 | 42.45646 | 10.42609 | 35671 ft | 400 kts | 278° |
| 2026-05-06 16:32 | 42.46292 | 10.38952 | 35894 ft | 399 kts | 278° |
| 2026-05-06 16:33 | 42.47583 | 10.31601 | 35913 ft | 401 kts | 278° |
| 2026-05-06 16:34 | 42.49499 | 10.20657 | 35911 ft | 399 kts | 278° |
| 2026-05-06 16:34 | 42.50770 | 10.13358 | 35907 ft | 398 kts | 278° |
| 2026-05-06 16:35 | 42.52033 | 10.06073 | 35910 ft | 397 kts | 278° |
| 2026-05-06 16:35 | 42.53289 | 9.98795 | 35906 ft | 397 kts | 278° |
| 2026-05-06 16:36 | 42.54542 | 9.91507 | 35906 ft | 397 kts | 277° |
| 2026-05-06 16:36 | 42.55783 | 9.84260 | 35911 ft | 397 kts | 277° |
| 2026-05-06 16:37 | 42.57030 | 9.76942 | 35910 ft | 398 kts | 277° |
| 2026-05-06 16:37 | 42.58274 | 9.69619 | 35915 ft | 399 kts | 277° |
| 2026-05-06 16:38 | 42.59516 | 9.62281 | 35910 ft | 399 kts | 277° |
| 2026-05-06 16:38 | 42.60746 | 9.54976 | 35915 ft | 400 kts | 277° |
| 2026-05-06 16:39 | 42.61980 | 9.47621 | 35914 ft | 400 kts | 277° |
| 2026-05-06 16:39 | 42.63209 | 9.40262 | 35921 ft | 400 kts | 277° |
| 2026-05-06 16:40 | 42.64438 | 9.32870 | 35914 ft | 401 kts | 277° |
| 2026-05-06 16:40 | 42.65662 | 9.25488 | 35923 ft | 400 kts | 277° |
| 2026-05-06 16:41 | 42.66867 | 9.18183 | 35911 ft | 399 kts | 277° |
| 2026-05-06 16:41 | 42.68073 | 9.10838 | 35916 ft | 398 kts | 277° |
| 2026-05-06 16:42 | 42.69271 | 9.03511 | 35908 ft | 397 kts | 276° |
| 2026-05-06 16:42 | 42.70461 | 8.96206 | 35912 ft | 395 kts | 276° |
| 2026-05-06 16:43 | 42.71634 | 8.88973 | 35912 ft | 393 kts | 276° |
| 2026-05-06 16:43 | 42.72805 | 8.81716 | 35916 ft | 393 kts | 276° |
| 2026-05-06 16:44 | 42.73970 | 8.74463 | 35917 ft | 392 kts | 276° |
| 2026-05-06 16:44 | 42.75131 | 8.67210 | 35917 ft | 393 kts | 276° |
| 2026-05-06 16:45 | 42.76288 | 8.59946 | 35921 ft | 393 kts | 276° |
| 2026-05-06 16:45 | 42.77436 | 8.52708 | 35924 ft | 394 kts | 276° |
| 2026-05-06 16:46 | 42.78590 | 8.45402 | 35920 ft | 395 kts | 276° |
| 2026-05-06 16:46 | 42.79743 | 8.38071 | 35923 ft | 396 kts | 276° |
| 2026-05-06 16:47 | 42.80893 | 8.30726 | 35920 ft | 397 kts | 276° |
| 2026-05-06 16:47 | 42.82040 | 8.23366 | 35913 ft | 398 kts | 276° |
| 2026-05-06 16:48 | 42.83177 | 8.16040 | 35912 ft | 398 kts | 275° |
| 2026-05-06 16:48 | 42.84317 | 8.08666 | 35909 ft | 398 kts | 275° |
| 2026-05-06 16:49 | 42.85452 | 8.01285 | 35907 ft | 398 kts | 275° |
| 2026-05-06 16:49 | 42.86581 | 7.93916 | 35906 ft | 397 kts | 275° |
| 2026-05-06 16:50 | 42.87697 | 7.86596 | 35912 ft | 397 kts | 275° |
| 2026-05-06 16:50 | 42.88813 | 7.79235 | 35901 ft | 396 kts | 275° |
| 2026-05-06 16:51 | 42.89923 | 7.71887 | 35899 ft | 395 kts | 275° |
| 2026-05-06 16:51 | 42.91027 | 7.64544 | 35900 ft | 395 kts | 275° |
| 2026-05-06 16:52 | 42.92118 | 7.57252 | 35898 ft | 395 kts | 275° |
| 2026-05-06 16:52 | 42.93210 | 7.49921 | 35897 ft | 394 kts | 275° |
| 2026-05-06 16:53 | 42.94296 | 7.42588 | 35896 ft | 394 kts | 275° |
| 2026-05-06 16:53 | 42.95377 | 7.35263 | 35893 ft | 394 kts | 275° |
| 2026-05-06 16:54 | 42.96455 | 7.27927 | 35894 ft | 394 kts | 275° |
| 2026-05-06 16:54 | 42.97519 | 7.20643 | 35897 ft | 394 kts | 275° |
| 2026-05-06 16:55 | 42.98587 | 7.13307 | 35891 ft | 394 kts | 274° |
| 2026-05-06 16:55 | 42.99649 | 7.05968 | 35890 ft | 394 kts | 274° |
| 2026-05-06 16:56 | 43.00707 | 6.98627 | 35887 ft | 394 kts | 274° |
| 2026-05-06 16:56 | 43.01761 | 6.91277 | 35889 ft | 394 kts | 274° |
| 2026-05-06 16:57 | 43.02803 | 6.83973 | 35888 ft | 394 kts | 274° |
| 2026-05-06 16:57 | 43.03849 | 6.76607 | 35891 ft | 395 kts | 274° |
| 2026-05-06 16:58 | 43.04891 | 6.69240 | 35884 ft | 395 kts | 274° |
| 2026-05-06 16:58 | 43.05929 | 6.61864 | 35889 ft | 395 kts | 274° |
| 2026-05-06 16:59 | 43.06963 | 6.54478 | 35893 ft | 395 kts | 274° |
| 2026-05-06 16:59 | 43.07984 | 6.47147 | 35900 ft | 395 kts | 274° |
| 2026-05-06 17:00 | 43.09009 | 6.39754 | 35905 ft | 396 kts | 274° |
| 2026-05-06 17:00 | 43.10029 | 6.32359 | 35918 ft | 396 kts | 274° |
| 2026-05-06 17:01 | 43.11045 | 6.24954 | 35914 ft | 396 kts | 274° |
| 2026-05-06 17:01 | 43.12050 | 6.17592 | 35916 ft | 396 kts | 274° |
| 2026-05-06 17:02 | 43.13056 | 6.10174 | 35893 ft | 397 kts | 274° |
| 2026-05-06 17:02 | 43.14060 | 6.02747 | 35907 ft | 396 kts | 273° |
| 2026-05-06 17:03 | 43.15058 | 5.95341 | 35918 ft | 395 kts | 274° |
| 2026-05-06 17:03 | 43.16046 | 5.87963 | 35927 ft | 394 kts | 273° |
| 2026-05-06 17:04 | 43.17023 | 5.80621 | 35914 ft | 395 kts | 273° |
| 2026-05-06 17:04 | 43.18001 | 5.73221 | 35919 ft | 395 kts | 273° |
| 2026-05-06 17:05 | 43.18978 | 5.65811 | 35920 ft | 396 kts | 273° |
| 2026-05-06 17:05 | 43.19951 | 5.58377 | 35916 ft | 397 kts | 273° |
| 2026-05-06 17:06 | 43.20916 | 5.50975 | 35921 ft | 398 kts | 273° |
| 2026-05-06 17:06 | 43.21886 | 5.43504 | 35923 ft | 399 kts | 273° |
| 2026-05-06 17:07 | 43.22856 | 5.35992 | 35938 ft | 400 kts | 273° |
| 2026-05-06 17:07 | 43.24309 | 5.28546 | 35923 ft | 409 kts | 282° |
| 2026-05-06 17:08 | 43.26281 | 5.21212 | 35920 ft | 411 kts | 283° |
| 2026-05-06 17:08 | 43.28243 | 5.13901 | 35916 ft | 411 kts | 282° |
| 2026-05-06 17:09 | 43.30181 | 5.06524 | 35916 ft | 411 kts | 282° |
| 2026-05-06 17:09 | 43.32097 | 4.99135 | 35913 ft | 411 kts | 282° |
| 2026-05-06 17:10 | 43.34008 | 4.91726 | 35917 ft | 411 kts | 282° |
| 2026-05-06 17:10 | 43.35902 | 4.84360 | 35921 ft | 412 kts | 282° |
| 2026-05-06 17:11 | 43.37803 | 4.76946 | 35917 ft | 412 kts | 282° |
| 2026-05-06 17:11 | 43.39703 | 4.69513 | 35912 ft | 412 kts | 282° |
| 2026-05-06 17:12 | 43.41598 | 4.62077 | 35912 ft | 412 kts | 282° |
| 2026-05-06 17:12 | 43.43488 | 4.54638 | 35904 ft | 412 kts | 282° |
| 2026-05-06 17:13 | 43.45361 | 4.47240 | 35903 ft | 412 kts | 282° |
| 2026-05-06 17:13 | 43.47241 | 4.39792 | 35898 ft | 412 kts | 282° |
| 2026-05-06 17:14 | 43.49116 | 4.32337 | 35900 ft | 412 kts | 282° |
| 2026-05-06 17:14 | 43.50990 | 4.24863 | 35908 ft | 413 kts | 282° |
| 2026-05-06 17:15 | 43.52860 | 4.17385 | 35913 ft | 413 kts | 282° |
| 2026-05-06 17:15 | 43.54712 | 4.09949 | 35914 ft | 413 kts | 282° |
| 2026-05-06 17:16 | 43.56574 | 4.02457 | 35919 ft | 413 kts | 282° |
| 2026-05-06 17:16 | 43.58355 | 3.94927 | 35920 ft | 411 kts | 279° |
| 2026-05-06 17:17 | 43.59778 | 3.87301 | 35916 ft | 410 kts | 278° |
| 2026-05-06 17:17 | 43.61122 | 3.79695 | 35929 ft | 411 kts | 278° |
| 2026-05-06 17:18 | 43.62496 | 3.72036 | 35913 ft | 412 kts | 278° |
| 2026-05-06 17:18 | 43.63890 | 3.64351 | 35921 ft | 413 kts | 278° |
| 2026-05-06 17:19 | 43.65286 | 3.56661 | 35917 ft | 413 kts | 278° |
| 2026-05-06 17:19 | 43.66680 | 3.48956 | 35917 ft | 414 kts | 278° |
| 2026-05-06 17:20 | 43.68061 | 3.41294 | 35924 ft | 414 kts | 279° |
| 2026-05-06 17:20 | 43.69449 | 3.33556 | 35919 ft | 415 kts | 279° |
| 2026-05-06 17:21 | 43.70833 | 3.25813 | 35925 ft | 415 kts | 279° |
| 2026-05-06 17:21 | 43.72203 | 3.18115 | 35919 ft | 416 kts | 279° |
| 2026-05-06 17:22 | 43.73580 | 3.10341 | 35925 ft | 416 kts | 279° |
| 2026-05-06 17:22 | 43.74951 | 3.02566 | 35931 ft | 417 kts | 279° |
| 2026-05-06 17:23 | 43.76319 | 2.94778 | 35941 ft | 417 kts | 279° |
| 2026-05-06 17:23 | 43.77682 | 2.86983 | 35939 ft | 417 kts | 279° |
| 2026-05-06 17:24 | 43.79033 | 2.79223 | 35941 ft | 417 kts | 279° |
| 2026-05-06 17:24 | 43.80387 | 2.71412 | 35952 ft | 418 kts | 279° |
| 2026-05-06 17:25 | 43.81740 | 2.63573 | 35960 ft | 419 kts | 279° |
| 2026-05-06 17:25 | 43.83089 | 2.55719 | 35967 ft | 420 kts | 279° |
| 2026-05-06 17:25 | 43.83766 | 2.51765 | 35703 ft | 425 kts | 279° |
| 2026-05-06 17:26 | 43.84438 | 2.47829 | 35343 ft | 424 kts | 279° |
| 2026-05-06 17:26 | 43.85113 | 2.43877 | 34871 ft | 420 kts | 279° |
| 2026-05-06 17:26 | 43.85782 | 2.39955 | 34448 ft | 416 kts | 279° |
| 2026-05-06 17:26 | 43.86444 | 2.36066 | 34002 ft | 413 kts | 279° |
| 2026-05-06 17:27 | 43.87097 | 2.32206 | 33511 ft | 410 kts | 279° |
| 2026-05-06 17:27 | 43.87744 | 2.28379 | 33032 ft | 406 kts | 279° |
| 2026-05-06 17:27 | 43.88383 | 2.24589 | 32591 ft | 402 kts | 279° |
| 2026-05-06 17:27 | 43.89014 | 2.20837 | 32166 ft | 398 kts | 279° |
| 2026-05-06 17:28 | 43.89629 | 2.17173 | 31750 ft | 394 kts | 279° |
| 2026-05-06 17:28 | 43.90245 | 2.13495 | 31339 ft | 390 kts | 279° |
| 2026-05-06 17:28 | 43.90856 | 2.09840 | 30932 ft | 387 kts | 279° |
| 2026-05-06 17:28 | 43.91460 | 2.06217 | 30527 ft | 384 kts | 279° |
| 2026-05-06 17:29 | 43.92057 | 2.02631 | 30128 ft | 381 kts | 279° |
| 2026-05-06 17:29 | 43.92650 | 1.99058 | 29675 ft | 378 kts | 280° |
| 2026-05-06 17:29 | 43.93235 | 1.95529 | 29211 ft | 374 kts | 280° |
| 2026-05-06 17:29 | 43.93815 | 1.92029 | 28798 ft | 370 kts | 280° |
| 2026-05-06 17:30 | 43.94387 | 1.88564 | 28386 ft | 367 kts | 280° |
| 2026-05-06 17:30 | 43.94944 | 1.85179 | 27976 ft | 363 kts | 279° |
| 2026-05-06 17:30 | 43.95302 | 1.81738 | 27533 ft | 358 kts | 271° |
| 2026-05-06 17:30 | 43.95207 | 1.78257 | 26791 ft | 362 kts | 262° |
| 2026-05-06 17:31 | 43.94934 | 1.74791 | 26274 ft | 361 kts | 262° |
| 2026-05-06 17:31 | 43.94684 | 1.71346 | 25882 ft | 358 kts | 263° |
| 2026-05-06 17:31 | 43.94447 | 1.67913 | 25465 ft | 356 kts | 263° |
| 2026-05-06 17:31 | 43.94217 | 1.64511 | 25081 ft | 353 kts | 263° |
| 2026-05-06 17:32 | 43.93990 | 1.61129 | 24691 ft | 351 kts | 263° |
| 2026-05-06 17:32 | 43.93764 | 1.57771 | 24307 ft | 350 kts | 263° |
| 2026-05-06 17:32 | 43.93540 | 1.54455 | 23939 ft | 349 kts | 263° |
| 2026-05-06 17:32 | 43.93313 | 1.51112 | 23563 ft | 349 kts | 263° |
| 2026-05-06 17:33 | 43.93085 | 1.47761 | 23111 ft | 348 kts | 263° |
| 2026-05-06 17:33 | 43.92858 | 1.44431 | 22685 ft | 346 kts | 263° |
| 2026-05-06 17:33 | 43.92631 | 1.41121 | 22316 ft | 344 kts | 263° |
| 2026-05-06 17:33 | 43.92403 | 1.37828 | 21921 ft | 342 kts | 263° |
| 2026-05-06 17:34 | 43.92177 | 1.34553 | 21542 ft | 340 kts | 263° |
| 2026-05-06 17:34 | 43.91950 | 1.31294 | 21169 ft | 338 kts | 263° |
| 2026-05-06 17:34 | 43.91724 | 1.28056 | 20790 ft | 337 kts | 263° |
| 2026-05-06 17:34 | 43.91500 | 1.24864 | 20426 ft | 336 kts | 263° |
| 2026-05-06 17:35 | 43.91273 | 1.21642 | 20056 ft | 335 kts | 264° |
| 2026-05-06 17:35 | 43.91047 | 1.18433 | 19682 ft | 335 kts | 264° |
| 2026-05-06 17:35 | 43.90819 | 1.15224 | 19310 ft | 334 kts | 264° |
| 2026-05-06 17:36 | 43.90362 | 1.08823 | 18568 ft | 333 kts | 264° |
| 2026-05-06 17:36 | 43.90134 | 1.05642 | 18196 ft | 330 kts | 264° |
| 2026-05-06 17:36 | 43.89907 | 1.02490 | 17776 ft | 328 kts | 264° |
| 2026-05-06 17:36 | 43.89681 | 0.99358 | 17393 ft | 327 kts | 264° |
| 2026-05-06 17:37 | 43.89456 | 0.96256 | 17027 ft | 327 kts | 264° |
| 2026-05-06 17:37 | 43.89226 | 0.93115 | 16655 ft | 327 kts | 264° |
| 2026-05-06 17:37 | 43.88954 | 0.89983 | 16270 ft | 327 kts | 258° |
| 2026-05-06 17:37 | 43.88081 | 0.87114 | 15902 ft | 325 kts | 236° |
| 2026-05-06 17:38 | 43.86490 | 0.84876 | 15440 ft | 328 kts | 219° |
| 2026-05-06 17:38 | 43.84635 | 0.83073 | 15078 ft | 325 kts | 217° |
| 2026-05-06 17:38 | 43.82790 | 0.81282 | 14700 ft | 323 kts | 217° |
| 2026-05-06 17:38 | 43.80995 | 0.79509 | 14337 ft | 320 kts | 218° |
| 2026-05-06 17:39 | 43.79189 | 0.77713 | 13980 ft | 318 kts | 218° |
| 2026-05-06 17:39 | 43.77398 | 0.75928 | 13603 ft | 316 kts | 218° |
| 2026-05-06 17:39 | 43.75621 | 0.74157 | 13217 ft | 314 kts | 218° |
| 2026-05-06 17:39 | 43.73853 | 0.72396 | 12847 ft | 312 kts | 218° |
| 2026-05-06 17:40 | 43.72102 | 0.70653 | 12494 ft | 309 kts | 218° |
| 2026-05-06 17:40 | 43.70363 | 0.68925 | 12142 ft | 306 kts | 218° |
| 2026-05-06 17:40 | 43.68640 | 0.67212 | 11790 ft | 303 kts | 218° |
| 2026-05-06 17:40 | 43.66936 | 0.65520 | 11445 ft | 299 kts | 218° |
| 2026-05-06 17:41 | 43.65267 | 0.63865 | 11101 ft | 291 kts | 218° |
| 2026-05-06 17:41 | 43.63666 | 0.62280 | 10785 ft | 283 kts | 218° |
| 2026-05-06 17:41 | 43.62073 | 0.60704 | 10480 ft | 282 kts | 219° |
| 2026-05-06 17:41 | 43.60486 | 0.59132 | 10291 ft | 278 kts | 218° |
| 2026-05-06 17:42 | 43.58929 | 0.57595 | 10148 ft | 274 kts | 219° |
| 2026-05-06 17:42 | 43.57381 | 0.56067 | 10034 ft | 273 kts | 219° |
| 2026-05-06 17:42 | 43.55820 | 0.54524 | 9778 ft | 280 kts | 219° |
| 2026-05-06 17:42 | 43.54239 | 0.52963 | 9469 ft | 279 kts | 218° |
| 2026-05-06 17:43 | 43.52669 | 0.51418 | 9161 ft | 276 kts | 219° |
| 2026-05-06 17:43 | 43.51117 | 0.49889 | 8870 ft | 272 kts | 218° |
| 2026-05-06 17:43 | 43.49604 | 0.48399 | 8593 ft | 270 kts | 219° |
| 2026-05-06 17:43 | 43.48063 | 0.46883 | 8302 ft | 268 kts | 219° |
| 2026-05-06 17:44 | 43.46569 | 0.45413 | 8017 ft | 266 kts | 219° |
| 2026-05-06 17:44 | 43.45072 | 0.43941 | 7737 ft | 264 kts | 219° |
| 2026-05-06 17:44 | 43.43581 | 0.42477 | 7466 ft | 262 kts | 219° |
| 2026-05-06 17:44 | 43.42116 | 0.41042 | 7246 ft | 255 kts | 219° |
| 2026-05-06 17:45 | 43.40817 | 0.39428 | 6712 ft | 251 kts | 238° |
| 2026-05-06 17:45 | 43.40092 | 0.37296 | 6273 ft | 243 kts | 251° |
| 2026-05-06 17:45 | 43.39482 | 0.35115 | 5634 ft | 246 kts | 250° |
| 2026-05-06 17:45 | 43.38836 | 0.32953 | 5135 ft | 242 kts | 250° |
| 2026-05-06 17:46 | 43.38190 | 0.30828 | 4606 ft | 241 kts | 249° |
| 2026-05-06 17:46 | 43.37551 | 0.28731 | 4099 ft | 240 kts | 249° |
| 2026-05-06 17:46 | 43.36922 | 0.26678 | 3912 ft | 225 kts | 250° |
| 2026-05-06 17:46 | 43.36332 | 0.24750 | 3635 ft | 216 kts | 250° |
| 2026-05-06 17:47 | 43.35752 | 0.22851 | 3210 ft | 214 kts | 250° |
| 2026-05-06 17:47 | 43.35192 | 0.21019 | 3048 ft | 201 kts | 249° |
| 2026-05-06 17:47 | 43.34673 | 0.19329 | 3003 ft | 182 kts | 250° |
| 2026-05-06 17:47 | 43.34200 | 0.17791 | 2986 ft | 171 kts | 250° |
| 2026-05-06 17:48 | 43.33734 | 0.16264 | 2988 ft | 175 kts | 249° |
| 2026-05-06 17:48 | 43.33265 | 0.14728 | 2990 ft | 174 kts | 249° |
| 2026-05-06 17:48 | 43.32945 | 0.13177 | 2988 ft | 170 kts | 260° |
| 2026-05-06 17:48 | 43.32712 | 0.11594 | 2988 ft | 169 kts | 260° |
| 2026-05-06 17:49 | 43.32476 | 0.09991 | 3007 ft | 174 kts | 259° |
| 2026-05-06 17:49 | 43.32228 | 0.08374 | 2997 ft | 172 kts | 258° |
| 2026-05-06 17:49 | 43.31704 | 0.06926 | 2984 ft | 173 kts | 229° |
| 2026-05-06 17:49 | 43.30639 | 0.06077 | 3027 ft | 182 kts | 208° |
| 2026-05-06 17:50 | 43.29522 | 0.05386 | 2986 ft | 168 kts | 209° |
| 2026-05-06 17:50 | 43.28461 | 0.04767 | 3015 ft | 168 kts | 207° |
| 2026-05-06 17:50 | 43.27381 | 0.04200 | 2938 ft | 166 kts | 206° |
| 2026-05-06 17:50 | 43.26326 | 0.03664 | 2742 ft | 157 kts | 205° |
| 2026-05-06 17:51 | 43.25349 | 0.03169 | 2537 ft | 147 kts | 206° |
| 2026-05-06 17:51 | 43.24387 | 0.02680 | 2352 ft | 149 kts | 207° |
| 2026-05-06 17:51 | 43.23406 | 0.02179 | 2132 ft | 151 kts | 206° |
| 2026-05-06 17:51 | 43.22413 | 0.01674 | 1910 ft | 154 kts | 206° |
| 2026-05-06 17:52 | 43.21395 | 0.01157 | 1666 ft | 156 kts | 205° |
| 2026-05-06 17:52 | 43.20399 | 0.00659 | 1441 ft | 151 kts | 205° |
| 2026-05-06 17:52 | 43.19399 | 0.00152 | 1286 ft | 155 kts | 205° |
| 2026-05-06 17:52 | 43.18431 | -0.00345 | 1202 ft | 137 kts | 202° |
| 2026-05-06 17:53 | 43.17736 | -0.00698 | 1221 ft | 75 kts | 200° |
| 2026-05-06 17:53 | 43.17405 | -0.00865 | 1233 ft | 39 kts | 200° |
| 2026-05-06 17:53 | 43.17181 | -0.00981 | 1247 ft | 21 kts | 200° |
| 2026-05-06 17:53 | 43.17086 | -0.00907 | 1253 ft | 17 kts | 108° |
| 2026-05-06 17:54 | 43.17092 | -0.00764 | 1245 ft | 17 kts | 30° |
| 2026-05-06 17:54 | 43.17206 | -0.00703 | 1251 ft | 19 kts | 23° |
| 2026-05-06 17:54 | 43.17332 | -0.00639 | 1233 ft | 20 kts | 20° |
| 2026-05-06 17:54 | 43.17472 | -0.00569 | 1227 ft | 22 kts | 20° |
| 2026-05-06 17:55 | 43.17616 | -0.00488 | 1223 ft | 22 kts | 24° |
| 2026-05-06 17:55 | 43.17751 | -0.00392 | 1219 ft | 22 kts | 28° |
| 2026-05-06 17:55 | 43.17879 | -0.00293 | 1216 ft | 21 kts | 29° |
| 2026-05-06 17:55 | 43.18005 | -0.00198 | 1212 ft | 21 kts | 29° |
| 2026-05-06 17:56 | 43.18133 | -0.00102 | 1208 ft | 22 kts | 29° |
| 2026-05-06 17:56 | 43.18267 | 0.00001 | 1203 ft | 22 kts | 30° |
| 2026-05-06 17:56 | 43.18393 | 0.00097 | 1198 ft | 17 kts | 28° |
| 2026-05-06 17:56 | 43.18475 | 0.00162 | 1195 ft | 7 kts | 46° |
| 2026-05-06 17:57 | 43.18497 | 0.00193 | 1195 ft | 0 kts | 45° |
| 2026-05-06 17:57 | 43.18499 | 0.00196 | 1195 ft | 0 kts | 45° |
| 2026-05-06 17:57 | 43.18500 | 0.00198 | 1195 ft | 0 kts | 45° |